Time;durP1;ratioP1;P1;durP2;ratioP2;P2;SDS_P1;SDS_P2;PMS_P1;PMS_P2;Temp;Humidity;BMP_temperature;BMP_pressure;BME280_temperature;BME280_humidity;BME280_pressure;Samples;Min_cycle;Max_cycle;Signal;HPM_P1;HPM_P2
2021/09/07 00:01:34;;;;;;;21.40;15.10;;;;;;;;;;5135354;28;20536;-58
2021/09/07 00:04:05;;;;;;;24.30;18.63;;;;;;;;;;5137563;28;20435;-48
2021/09/07 00:06:47;;;;;;;25.67;17.07;;;;;;;;;;5137844;28;20442;-55
2021/09/07 00:09:15;;;;;;;21.30;15.63;;;;;;;;;;5137114;28;20446;-49
2021/09/07 00:11:44;;;;;;;19.50;14.73;;;;;;;;;;5137341;28;20419;-58
2021/09/07 00:14:16;;;;;;;28.50;17.03;;;;;;;;;;5137494;28;20465;-53
2021/09/07 00:16:44;;;;;;;22.80;16.50;;;;;;;;;;5137417;28;20478;-52
2021/09/07 00:19:12;;;;;;;20.30;14.70;;;;;;;;;;5136890;28;20434;-53
2021/09/07 00:24:44;;;;;;;17.20;13.90;;;;;;;;;;5135707;28;20553;-51
2021/09/07 00:27:14;;;;;;;18.80;14.00;;;;;;;;;;5137134;28;20499;-45
2021/09/07 00:30:01;;;;;;;17.23;13.23;;;;;;;;;;5137210;28;20477;-48
2021/09/07 00:32:29;;;;;;;19.73;13.87;;;;;;;;;;5135786;28;20490;-51
2021/09/07 00:34:58;;;;;;;20.40;15.60;;;;;;;;;;5137344;28;20525;-55
2021/09/07 00:37:32;;;;;;;20.70;13.90;;;;;;;;;;5136466;28;20456;-53
2021/09/07 00:40:02;;;;;;;18.63;14.00;;;;;;;;;;5137467;28;20434;-53
2021/09/07 00:42:34;;;;;;;17.20;12.87;;;;;;;;;;5137519;28;20461;-51
2021/09/07 00:45:13;;;;;;;18.90;14.37;;;;;;;;;;5137322;28;20454;-58
2021/09/07 00:47:44;;;;;;;20.70;13.57;;;;;;;;;;5137292;28;20457;-55
2021/09/07 00:50:13;;;;;;;21.37;14.90;;;;;;;;;;5136777;28;20450;-52
2021/09/07 00:52:44;;;;;;;23.00;15.20;;;;;;;;;;5137362;28;20457;-50
2021/09/07 00:55:13;;;;;;;18.07;13.57;;;;;;;;;;5136728;28;20486;-53
2021/09/07 00:57:42;;;;;;;19.77;14.20;;;;;;;;;;5136909;28;20445;-50
2021/09/07 01:00:30;;;;;;;17.90;12.80;;;;;;;;;;5136808;28;20441;-54
2021/09/07 01:02:58;;;;;;;17.33;13.93;;;;;;;;;;5136888;28;20442;-55
2021/09/07 01:05:26;;;;;;;17.57;13.80;;;;;;;;;;5136918;28;20480;-56
2021/09/07 01:10:58;;;;;;;19.20;13.27;;;;;;;;;;5135582;28;20487;-57
2021/09/07 01:13:29;;;;;;;16.53;12.63;;;;;;;;;;5137137;28;20454;-51
2021/09/07 01:15:57;;;;;;;24.13;13.30;;;;;;;;;;5136920;28;20725;-57
2021/09/07 01:18:25;;;;;;;21.13;14.03;;;;;;;;;;5136569;28;20438;-52
2021/09/07 01:20:53;;;;;;;19.43;14.47;;;;;;;;;;5136314;28;20492;-49
2021/09/07 01:23:46;;;;;;;17.87;13.53;;;;;;;;;;5137128;28;20442;-59
2021/09/07 01:26:17;;;;;;;17.93;13.77;;;;;;;;;;5136511;28;20568;-54
2021/09/07 01:28:45;;;;;;;19.63;14.50;;;;;;;;;;5136613;28;20446;-50
2021/09/07 01:31:13;;;;;;;20.03;14.03;;;;;;;;;;5138035;28;20488;-54
2021/09/07 01:33:41;;;;;;;16.60;12.77;;;;;;;;;;5140114;28;20450;-55
2021/09/07 01:36:12;;;;;;;19.50;13.37;;;;;;;;;;5140403;28;20491;-57
2021/09/07 01:38:40;;;;;;;21.87;14.47;;;;;;;;;;5140346;28;20517;-53
2021/09/07 01:41:09;;;;;;;20.53;13.83;;;;;;;;;;5140016;28;20460;-59
2021/09/07 01:43:54;;;;;;;21.63;14.83;;;;;;;;;;5140087;28;20459;-52
2021/09/07 01:46:22;;;;;;;18.30;13.03;;;;;;;;;;5140758;28;20442;-54
2021/09/07 01:48:50;;;;;;;19.93;13.17;;;;;;;;;;5140241;28;20455;-52
2021/09/07 01:54:25;;;;;;;17.80;11.83;;;;;;;;;;5138303;28;20488;-48
2021/09/07 01:56:53;;;;;;;21.40;13.17;;;;;;;;;;5139144;28;20516;-49
2021/09/07 02:02:26;;;;;;;17.20;11.70;;;;;;;;;;5137749;28;20488;-55
2021/09/07 02:04:53;;;;;;;20.80;13.60;;;;;;;;;;5139522;28;20439;-55
2021/09/07 02:07:33;;;;;;;23.33;14.53;;;;;;;;;;5139198;28;20454;-56
2021/09/07 02:10:02;;;;;;;34.43;14.67;;;;;;;;;;5139168;28;20663;-51
2021/09/07 02:12:29;;;;;;;21.63;13.50;;;;;;;;;;5139438;28;20441;-53
2021/09/07 02:15:18;;;;;;;18.50;13.57;;;;;;;;;;5138826;28;20923;-54
2021/09/07 02:17:47;;;;;;;17.73;13.23;;;;;;;;;;5139475;28;20462;-55
2021/09/07 02:20:15;;;;;;;17.63;12.27;;;;;;;;;;5139017;28;20475;-51
2021/09/07 02:22:47;;;;;;;20.73;13.97;;;;;;;;;;5139526;28;20446;-50
2021/09/07 02:25:15;;;;;;;18.00;13.40;;;;;;;;;;5139299;28;20522;-50
2021/09/07 02:27:42;;;;;;;16.90;13.33;;;;;;;;;;5139162;27;20520;-53
2021/09/07 02:30:19;;;;;;;17.37;12.23;;;;;;;;;;5139027;28;20450;-58
2021/09/07 02:32:48;;;;;;;18.93;13.20;;;;;;;;;;5139092;28;20458;-47
2021/09/07 02:35:15;;;;;;;21.10;13.43;;;;;;;;;;5139000;28;20458;-47
2021/09/07 02:37:42;;;;;;;20.37;14.00;;;;;;;;;;5138528;28;20458;-52
2021/09/07 02:40:10;;;;;;;20.17;14.90;;;;;;;;;;5139001;28;20472;-51
2021/09/07 02:42:56;;;;;;;17.97;14.03;;;;;;;;;;5138787;28;20506;-50
2021/09/07 02:45:25;;;;;;;18.47;12.20;;;;;;;;;;5138753;28;20450;-53
2021/09/07 02:47:55;;;;;;;21.00;13.73;;;;;;;;;;5138761;28;20455;-47
2021/09/07 02:50:46;;;;;;;28.10;14.07;;;;;;;;;;5138199;28;20438;-59
2021/09/07 02:53:14;;;;;;;22.50;14.00;;;;;;;;;;5138313;28;20460;-55
2021/09/07 02:55:41;;;;;;;18.37;13.63;;;;;;;;;;5138535;28;20518;-50
2021/09/07 02:58:22;;;;;;;23.13;14.10;;;;;;;;;;5138318;28;20442;-52
2021/09/07 03:00:50;;;;;;;20.80;14.33;;;;;;;;;;5138104;28;20458;-48
2021/09/07 03:03:18;;;;;;;19.30;14.00;;;;;;;;;;5138227;28;20494;-56
2021/09/07 03:08:52;;;;;;;19.47;12.73;;;;;;;;;;5138178;28;20436;-53
2021/09/07 03:11:20;;;;;;;18.57;13.97;;;;;;;;;;5138044;28;20454;-52
2021/09/07 03:13:47;;;;;;;21.13;14.93;;;;;;;;;;5137904;28;20430;-52
2021/09/07 03:16:25;;;;;;;20.10;13.90;;;;;;;;;;5137479;28;20490;-53
2021/09/07 03:18:54;;;;;;;18.80;13.13;;;;;;;;;;5137818;28;20454;-57
2021/09/07 03:21:22;;;;;;;18.70;13.30;;;;;;;;;;5138298;28;20477;-52
2021/09/07 03:26:54;;;;;;;18.47;13.30;;;;;;;;;;5137987;28;20424;-56
2021/09/07 03:29:22;;;;;;;20.03;14.30;;;;;;;;;;5157264;27;20457;-51
2021/09/07 03:31:49;;;;;;;17.73;12.17;;;;;;;;;;5158750;27;20450;-48
2021/09/07 03:34:20;;;;;;;23.53;14.40;;;;;;;;;;5155804;27;20448;-53
2021/09/07 03:36:47;;;;;;;22.10;13.93;;;;;;;;;;5158847;27;20497;-53
2021/09/07 03:39:15;;;;;;;23.60;14.50;;;;;;;;;;5153404;27;20483;-54
2021/09/07 03:42:01;;;;;;;20.17;13.60;;;;;;;;;;5158506;27;20436;-54
2021/09/07 03:44:28;;;;;;;17.70;13.10;;;;;;;;;;5158377;27;20455;-58
2021/09/07 03:46:57;;;;;;;21.00;14.50;;;;;;;;;;5151705;27;20457;-56
2021/09/07 03:49:28;;;;;;;21.63;13.50;;;;;;;;;;5159085;27;20449;-50
2021/09/07 03:51:57;;;;;;;24.43;14.90;;;;;;;;;;5159065;27;20532;-54
2021/09/07 03:54:44;;;;;;;19.93;14.63;;;;;;;;;;5158341;27;20477;-51
2021/09/07 03:57:23;;;;;;;22.57;14.63;;;;;;;;;;5144709;27;20526;-54
2021/09/07 03:59:51;;;;;;;21.00;14.10;;;;;;;;;;5172723;27;20466;-55
2021/09/07 04:02:38;;;;;;;18.13;13.30;;;;;;;;;;5173088;27;20468;-60
2021/09/07 04:05:09;;;;;;;24.93;14.13;;;;;;;;;;5154165;27;20441;-51
2021/09/07 04:07:40;;;;;;;22.67;15.13;;;;;;;;;;5152252;27;20462;-55
2021/09/07 04:10:11;;;;;;;22.60;15.57;;;;;;;;;;5157930;27;20446;-54
2021/09/07 04:12:39;;;;;;;25.20;14.87;;;;;;;;;;5157597;27;20437;-54
2021/09/07 04:15:07;;;;;;;23.83;15.10;;;;;;;;;;5158152;27;20422;-54
2021/09/07 04:17:34;;;;;;;23.23;15.50;;;;;;;;;;5157879;28;20518;-47
2021/09/07 04:20:02;;;;;;;19.97;14.33;;;;;;;;;;5157870;28;20442;-58
2021/09/07 04:22:48;;;;;;;22.50;13.93;;;;;;;;;;5157619;28;20514;-54
2021/09/07 04:25:15;;;;;;;21.53;14.57;;;;;;;;;;5157399;27;20517;-51
2021/09/07 04:27:44;;;;;;;21.90;14.20;;;;;;;;;;5157858;28;20445;-55
2021/09/07 04:30:15;;;;;;;18.40;13.33;;;;;;;;;;5157957;28;20467;-56
2021/09/07 04:32:46;;;;;;;20.73;13.60;;;;;;;;;;5157634;27;20721;-54
2021/09/07 04:38:25;;;;;;;19.70;14.00;;;;;;;;;;5155226;28;20504;-58
2021/09/07 04:40:57;;;;;;;21.90;14.90;;;;;;;;;;5158120;28;20458;-55
2021/09/07 04:46:28;;;;;;;28.10;16.43;;;;;;;;;;5156267;28;20499;-56
2021/09/07 04:48:55;;;;;;;22.00;14.63;;;;;;;;;;5157051;28;20600;-57
2021/09/07 04:51:24;;;;;;;19.60;12.97;;;;;;;;;;5139646;28;20491;-55
2021/09/07 04:54:19;;;;;;;21.90;13.90;;;;;;;;;;5153164;28;20437;-54
2021/09/07 04:56:50;;;;;;;21.67;14.67;;;;;;;;;;5152989;28;20504;-55
2021/09/07 04:59:51;;;;;;;22.23;15.20;;;;;;;;;;5157024;28;20463;-54
2021/09/07 05:02:19;;;;;;;21.00;15.67;;;;;;;;;;5157198;28;20461;-53
2021/09/07 05:04:47;;;;;;;20.33;13.63;;;;;;;;;;5157103;27;20876;-55
2021/09/07 05:07:14;;;;;;;18.70;13.63;;;;;;;;;;5156870;27;21032;-54
2021/09/07 05:09:43;;;;;;;21.67;14.73;;;;;;;;;;5160757;27;20471;-56
2021/09/07 05:12:10;;;;;;;20.33;13.57;;;;;;;;;;5161462;27;20422;-53
2021/09/07 05:15:03;;;;;;;25.90;14.40;;;;;;;;;;5150656;27;20600;-57
2021/09/07 05:17:31;;;;;;;17.83;13.50;;;;;;;;;;5147306;27;20489;-54
2021/09/07 05:19:58;;;;;;;25.73;16.53;;;;;;;;;;5160366;27;20815;-57
2021/09/07 05:22:34;;;;;;;21.63;14.20;;;;;;;;;;5160567;27;20492;-58
2021/09/07 05:25:06;;;;;;;27.10;16.53;;;;;;;;;;5160889;27;20494;-52
2021/09/07 05:27:35;;;;;;;21.33;14.97;;;;;;;;;;5157629;27;20479;-53
2021/09/07 05:30:22;;;;;;;23.33;14.40;;;;;;;;;;5160414;27;20430;-54
2021/09/07 05:32:49;;;;;;;24.03;14.70;;;;;;;;;;5160229;27;20461;-57
2021/09/07 05:35:17;;;;;;;23.60;15.27;;;;;;;;;;5164508;27;20484;-54
2021/09/07 05:37:54;;;;;;;23.90;14.07;;;;;;;;;;5172397;27;20481;-54
2021/09/07 05:40:23;;;;;;;21.50;15.40;;;;;;;;;;5186950;22;20704;-58
2021/09/07 05:45:53;;;;;;;26.43;15.73;;;;;;;;;;5138179;28;20530;-60
2021/09/07 05:48:37;;;;;;;23.43;16.50;;;;;;;;;;5139307;28;20477;-54
2021/09/07 05:51:19;;;;;;;;;;;;;;;;;;;;;
2021/09/07 05:59:39;;;;;;;22.53;13.87;;;;;;;;;;5159550;27;20408;-52
2021/09/07 06:02:19;;;;;;;27.23;16.53;;;;;;;;;;5159169;27;20506;-52
2021/09/07 06:04:54;;;;;;;26.07;15.17;;;;;;;;;;5142909;27;20457;-53
2021/09/07 06:07:22;;;;;;;21.07;14.60;;;;;;;;;;5159225;27;20436;-55
2021/09/07 06:09:50;;;;;;;28.50;16.23;;;;;;;;;;5160401;27;20453;-54
2021/09/07 06:12:35;;;;;;;20.70;14.47;;;;;;;;;;5159307;27;20433;-55
2021/09/07 06:15:04;;;;;;;23.20;12.40;;;;;;;;;;5159519;27;20630;-52
2021/09/07 06:17:31;;;;;;;24.93;15.17;;;;;;;;;;5151218;27;20474;-53
2021/09/07 06:20:06;;;;;;;21.50;15.47;;;;;;;;;;5143285;27;20492;-55
2021/09/07 06:22:36;;;;;;;22.40;15.20;;;;;;;;;;5143387;27;20478;-49
2021/09/07 06:25:06;;;;;;;22.43;16.00;;;;;;;;;;5139170;28;20454;-57
2021/09/07 06:31:05;;;;;;;21.17;15.17;;;;;;;;;;5131076;28;20473;-53
2021/09/07 06:33:35;;;;;;;22.40;15.23;;;;;;;;;;5138476;28;20507;-54
2021/09/07 06:39:10;;;;;;;28.13;16.07;;;;;;;;;;5153746;27;20479;-53
2021/09/07 06:41:37;;;;;;;20.40;14.37;;;;;;;;;;5141509;27;20453;-56
2021/09/07 06:47:19;;;;;;;20.90;14.77;;;;;;;;;;5156528;27;20470;-57
2021/09/07 06:49:48;;;;;;;20.47;14.30;;;;;;;;;;5159161;27;20446;-55
2021/09/07 06:52:39;;;;;;;24.70;16.40;;;;;;;;;;5159402;27;20445;-57
2021/09/07 06:55:07;;;;;;;19.20;14.37;;;;;;;;;;5158679;27;20465;-52
2021/09/07 06:57:48;;;;;;;21.97;15.43;;;;;;;;;;5157816;27;20530;-56
2021/09/07 07:00:17;;;;;;;19.80;13.80;;;;;;;;;;5152163;27;20509;-51
2021/09/07 07:02:44;;;;;;;22.27;15.30;;;;;;;;;;5137549;28;20487;-56
2021/09/07 07:05:14;;;;;;;24.03;15.13;;;;;;;;;;5137791;27;20459;-50
2021/09/07 07:07:41;;;;;;;29.87;15.30;;;;;;;;;;5156740;27;20441;-56
2021/09/07 07:10:11;;;;;;;28.50;15.70;;;;;;;;;;5158035;27;20512;-56
2021/09/07 07:13:09;;;;;;;24.07;15.57;;;;;;;;;;5158614;27;20458;-47
2021/09/07 07:15:36;;;;;;;21.43;14.40;;;;;;;;;;5148056;27;20480;-57
2021/09/07 07:18:03;;;;;;;20.60;15.17;;;;;;;;;;5156431;27;20482;-53
2021/09/07 07:26:43;;;;;;;23.03;15.97;;;;;;;;;;5137929;28;20891;-55
2021/09/07 07:29:34;;;;;;;22.47;16.27;;;;;;;;;;5137055;28;20454;-56
2021/09/07 07:32:06;;;;;;;21.07;15.20;;;;;;;;;;5124927;28;20459;-59
2021/09/07 07:34:34;;;;;;;26.30;16.17;;;;;;;;;;5128474;28;20456;-57
2021/09/07 07:39:43;;;;;;;19.73;15.07;;;;;;;;;;5137559;28;20663;-53
2021/09/07 07:42:12;;;;;;;22.07;15.27;;;;;;;;;;5137286;28;20442;-57
2021/09/07 07:44:40;;;;;;;19.13;14.87;;;;;;;;;;5137278;28;20450;-51
2021/09/07 07:47:34;;;;;;;20.63;16.07;;;;;;;;;;5136877;28;20466;-55
2021/09/07 07:50:02;;;;;;;24.23;15.20;;;;;;;;;;5153236;27;20509;-53
2021/09/07 07:52:29;;;;;;;23.67;16.83;;;;;;;;;;5147397;27;20460;-56
2021/09/07 07:55:15;;;;;;;19.43;15.27;;;;;;;;;;5137176;27;20454;-48
2021/09/07 07:57:46;;;;;;;21.20;16.53;;;;;;;;;;5134101;28;20502;-56
2021/09/07 08:00:14;;;;;;;28.83;16.07;;;;;;;;;;5130389;28;20481;-55
2021/09/07 08:02:58;;;;;;;21.17;15.33;;;;;;;;;;5117818;28;20454;-59
2021/09/07 08:05:25;;;;;;;25.20;17.23;;;;;;;;;;5127178;28;20477;-56
2021/09/07 08:07:53;;;;;;;20.97;15.63;;;;;;;;;;5136319;28;20438;-55
2021/09/07 08:10:44;;;;;;;26.00;18.13;;;;;;;;;;5136495;28;20461;-50
2021/09/07 08:13:14;;;;;;;22.37;16.03;;;;;;;;;;5136435;28;20488;-55
2021/09/07 08:15:42;;;;;;;25.13;17.17;;;;;;;;;;5136958;28;20439;-56
2021/09/07 08:18:13;;;;;;;25.10;17.23;;;;;;;;;;5136176;28;20511;-55
2021/09/07 08:20:42;;;;;;;23.17;16.30;;;;;;;;;;5136572;28;20446;-54
2021/09/07 08:23:10;;;;;;;20.63;15.30;;;;;;;;;;5120618;28;20486;-54
2021/09/07 08:25:40;;;;;;;22.63;16.97;;;;;;;;;;5116148;28;20443;-56
2021/09/07 08:28:07;;;;;;;23.13;17.80;;;;;;;;;;5115574;28;20458;-58
2021/09/07 08:30:48;;;;;;;23.93;17.50;;;;;;;;;;5126921;28;20441;-51
2021/09/07 08:33:21;;;;;;;18.83;15.40;;;;;;;;;;5123210;28;20484;-52
2021/09/07 08:35:50;;;;;;;23.20;17.23;;;;;;;;;;5136615;28;20499;-51
2021/09/07 08:38:39;;;;;;;22.20;16.23;;;;;;;;;;5136543;28;20553;-54
2021/09/07 08:41:07;;;;;;;23.60;18.10;;;;;;;;;;5138131;28;20470;-53
2021/09/07 08:43:37;;;;;;;24.43;20.63;;;;;;;;;;5139909;28;20458;-56
2021/09/07 08:46:20;;;;;;;28.57;17.60;;;;;;;;;;5138827;28;20463;-56
2021/09/07 08:48:51;;;;;;;21.10;16.60;;;;;;;;;;5124327;28;20475;-56
2021/09/07 08:51:24;;;;;;;25.40;17.20;;;;;;;;;;5135044;28;20480;-50
2021/09/07 08:54:05;;;;;;;21.70;15.23;;;;;;;;;;5140809;28;20415;-57
2021/09/07 08:56:33;;;;;;;26.80;16.57;;;;;;;;;;5127047;28;20537;-53
2021/09/07 08:59:02;;;;;;;18.73;15.50;;;;;;;;;;5123616;28;20479;-55
2021/09/07 09:02:01;;;;;;;25.03;16.03;;;;;;;;;;5119668;28;20519;-56
2021/09/07 09:04:33;;;;;;;20.30;15.07;;;;;;;;;;5119209;28;20450;-58
2021/09/07 09:07:01;;;;;;;25.50;17.00;;;;;;;;;;5125852;28;20440;-51
2021/09/07 09:09:37;;;;;;;23.30;16.13;;;;;;;;;;5140387;28;20511;-55
2021/09/07 09:12:05;;;;;;;22.53;16.20;;;;;;;;;;5137822;28;20493;-57
2021/09/07 09:14:51;;;;;;;21.07;15.20;;;;;;;;;;5139961;28;20668;-55
2021/09/07 09:17:24;;;;;;;24.37;17.73;;;;;;;;;;5140824;28;20474;-51
2021/09/07 09:19:54;;;;;;;18.63;15.67;;;;;;;;;;5123445;28;20439;-57
2021/09/07 09:22:53;;;;;;;25.43;17.17;;;;;;;;;;5136103;28;20463;-58
2021/09/07 09:25:28;;;;;;;16.37;13.83;;;;;;;;;;5120750;28;20488;-59
2021/09/07 09:30:58;;;;;;;22.83;19.47;;;;;;;;;;5118675;28;20444;-54
2021/09/07 09:33:26;;;;;;;23.27;17.13;;;;;;;;;;5139507;28;20446;-46
2021/09/07 09:39:34;;;;;;;22.00;16.47;;;;;;;;;;5138608;28;20463;-57
2021/09/07 09:45:14;;;;;;;26.93;17.13;;;;;;;;;;5117331;28;20475;-53
2021/09/07 09:47:43;;;;;;;21.47;15.20;;;;;;;;;;5138819;28;20446;-58
2021/09/07 09:50:14;;;;;;;21.13;15.50;;;;;;;;;;5136665;28;20434;-51
2021/09/07 09:52:42;;;;;;;21.03;15.37;;;;;;;;;;5117357;28;20435;-51
2021/09/07 09:55:12;;;;;;;19.50;14.40;;;;;;;;;;5120867;28;20451;-56
2021/09/07 09:58:06;;;;;;;20.47;15.87;;;;;;;;;;5118308;28;20505;-50
2021/09/07 10:00:35;;;;;;;24.23;14.77;;;;;;;;;;5130807;28;20438;-50
2021/09/07 10:03:03;;;;;;;26.33;15.37;;;;;;;;;;5138626;28;20454;-52
2021/09/07 10:08:41;;;;;;;25.10;16.00;;;;;;;;;;5150575;27;20482;-55
2021/09/07 10:11:12;;;;;;;21.93;15.80;;;;;;;;;;5159085;27;20437;-48
2021/09/07 10:16:34;;;;;;;20.93;16.20;;;;;;;;;;5145571;27;20469;-59
2021/09/07 10:19:09;;;;;;;19.17;15.07;;;;;;;;;;5138400;28;20486;-56
2021/09/07 10:24:48;;;;;;;18.10;13.97;;;;;;;;;;5138093;28;20503;-51
2021/09/07 10:27:19;;;;;;;23.70;15.23;;;;;;;;;;5137942;28;20506;-57
2021/09/07 10:29:47;;;;;;;18.40;13.30;;;;;;;;;;5137322;28;20442;-53
2021/09/07 10:32:43;;;;;;;20.50;14.93;;;;;;;;;;5138126;28;20434;-55
2021/09/07 10:35:11;;;;;;;19.47;13.80;;;;;;;;;;5138008;28;20458;-52
2021/09/07 10:37:58;;;;;;;20.50;14.47;;;;;;;;;;5138633;27;20455;-52
2021/09/07 10:40:42;;;;;;;21.57;14.37;;;;;;;;;;5137717;28;20434;-53
2021/09/07 10:43:35;;;;;;;20.80;13.87;;;;;;;;;;5138638;28;20503;-56
2021/09/07 10:46:07;;;;;;;28.30;15.10;;;;;;;;;;5152931;27;20438;-56
2021/09/07 10:52:07;;;;;;;16.30;12.20;;;;;;;;;;5132531;27;20449;-52
2021/09/07 10:54:37;;;;;;;20.80;14.57;;;;;;;;;;5137934;28;20506;-51
2021/09/07 10:57:06;;;;;;;21.53;14.47;;;;;;;;;;5158471;27;20432;-55
2021/09/07 10:59:47;;;;;;;17.33;12.57;;;;;;;;;;5144261;27;20485;-50
2021/09/07 11:02:41;;;;;;;21.57;14.00;;;;;;;;;;5143186;27;20483;-51
2021/09/07 11:05:10;;;;;;;20.53;13.50;;;;;;;;;;5157765;27;20452;-56
2021/09/07 11:07:39;;;;;;;20.07;15.10;;;;;;;;;;5157887;27;20433;-55
2021/09/07 11:10:42;;;;;;;18.37;13.57;;;;;;;;;;5157524;27;20452;-55
2021/09/07 11:13:33;;;;;;;17.70;13.00;;;;;;;;;;5130567;28;20482;-55
2021/09/07 11:16:17;;;;;;;17.63;13.43;;;;;;;;;;5128595;28;20602;-52
2021/09/07 11:18:59;;;;;;;19.57;15.13;;;;;;;;;;5137298;28;20474;-56
2021/09/07 11:21:30;;;;;;;16.80;13.00;;;;;;;;;;5137436;28;20447;-54
2021/09/07 11:24:02;;;;;;;17.40;14.00;;;;;;;;;;5137214;28;20465;-55
2021/09/07 11:30:20;;;;;;;21.50;14.30;;;;;;;;;;5115757;28;20483;-54
2021/09/07 11:32:51;;;;;;;17.30;13.20;;;;;;;;;;5118584;28;20454;-55
2021/09/07 11:35:20;;;;;;;15.67;12.37;;;;;;;;;;5136142;28;20470;-51
2021/09/07 11:37:49;;;;;;;17.80;14.80;;;;;;;;;;5136347;28;20452;-59
2021/09/07 11:43:30;;;;;;;13.97;10.80;;;;;;;;;;5134689;28;20483;-58
2021/09/07 11:46:37;;;;;;;14.90;11.50;;;;;;;;;;5136643;28;20677;-56
2021/09/07 11:49:20;;;;;;;16.30;13.00;;;;;;;;;;5132969;28;20465;-49
2021/09/07 11:51:48;;;;;;;16.53;11.70;;;;;;;;;;5136271;28;20463;-56
2021/09/07 11:54:21;;;;;;;13.73;9.93;;;;;;;;;;5116150;28;20440;-54
2021/09/07 11:57:14;;;;;;;15.40;10.87;;;;;;;;;;5130467;28;20442;-50
2021/09/07 12:00:04;;;;;;;13.50;10.40;;;;;;;;;;5136587;28;20482;-45
2021/09/07 12:02:58;;;;;;;10.97;9.67;;;;;;;;;;5134686;28;20445;-57
2021/09/07 12:05:47;;;;;;;11.73;9.30;;;;;;;;;;5136601;28;20458;-56
2021/09/07 12:11:30;;;;;;;13.80;9.67;;;;;;;;;;5120506;28;20439;-56
2021/09/07 12:14:23;;;;;;;13.37;10.30;;;;;;;;;;5114898;28;20439;-51
2021/09/07 12:16:54;;;;;;;17.30;10.50;;;;;;;;;;5131674;28;20522;-56
2021/09/07 12:22:50;;;;;;;13.30;8.77;;;;;;;;;;5134021;28;20483;-53
2021/09/07 12:25:21;;;;;;;10.70;8.30;;;;;;;;;;5115830;28;20510;-54
2021/09/07 12:27:50;;;;;;;14.00;8.40;;;;;;;;;;5116589;28;20486;-51
2021/09/07 12:33:21;;;;;;;11.33;8.73;;;;;;;;;;5118512;28;20523;-56
2021/09/07 12:36:02;;;;;;;8.80;6.80;;;;;;;;;;5129578;28;20447;-51
2021/09/07 12:41:35;;;;;;;11.20;8.50;;;;;;;;;;5125933;28;20537;-56
2021/09/07 12:44:30;;;;;;;12.00;7.97;;;;;;;;;;5142733;28;20473;-53
2021/09/07 12:47:29;;;;;;;11.10;8.53;;;;;;;;;;5137314;28;20451;-54
2021/09/07 12:49:57;;;;;;;16.63;9.33;;;;;;;;;;5135720;28;20430;-53
2021/09/07 12:52:28;;;;;;;20.03;15.27;;;;;;;;;;5135436;28;20418;-52
2021/09/07 12:54:56;;;;;;;7.93;5.43;;;;;;;;;;5135071;28;20458;-57
2021/09/07 12:57:23;;;;;;;8.67;5.97;;;;;;;;;;5135882;28;20438;-52
2021/09/07 12:59:52;;;;;;;11.23;6.27;;;;;;;;;;5135779;28;20530;-57
2021/09/07 13:05:28;;;;;;;11.77;8.20;;;;;;;;;;5141332;28;20473;-57
2021/09/07 13:07:57;;;;;;;11.57;8.33;;;;;;;;;;5134099;28;20455;-53
2021/09/07 13:10:25;;;;;;;10.70;7.97;;;;;;;;;;5133773;28;20811;-51
2021/09/07 13:12:56;;;;;;;12.77;7.73;;;;;;;;;;5132177;28;20484;-51
2021/09/07 13:15:47;;;;;;;9.60;7.63;;;;;;;;;;5136183;28;20439;-55
2021/09/07 13:18:25;;;;;;;8.90;7.20;;;;;;;;;;5135875;28;20464;-50
2021/09/07 13:21:25;;;;;;;10.23;7.30;;;;;;;;;;5117917;28;20445;-52
2021/09/07 13:24:02;;;;;;;11.87;8.73;;;;;;;;;;5115171;28;20459;-57
2021/09/07 13:26:39;;;;;;;7.80;6.43;;;;;;;;;;5116478;28;20447;-58
2021/09/07 13:29:09;;;;;;;9.67;7.57;;;;;;;;;;5119108;28;20462;-55
2021/09/07 13:31:36;;;;;;;14.90;7.87;;;;;;;;;;5128755;28;20443;-54
2021/09/07 13:34:44;;;;;;;9.10;7.60;;;;;;;;;;5122262;28;20427;-55
2021/09/07 13:37:16;;;;;;;9.93;7.70;;;;;;;;;;5129227;28;20461;-53
2021/09/07 13:39:45;;;;;;;11.60;8.20;;;;;;;;;;5139860;28;20493;-57
2021/09/07 13:42:22;;;;;;;12.93;8.80;;;;;;;;;;5139974;28;20458;-51
2021/09/07 13:44:55;;;;;;;12.97;8.80;;;;;;;;;;5119232;28;20489;-54
2021/09/07 13:47:24;;;;;;;10.90;8.23;;;;;;;;;;5114139;28;20446;-54
2021/09/07 13:50:11;;;;;;;11.80;7.33;;;;;;;;;;5139206;28;20462;-53
2021/09/07 13:52:39;;;;;;;9.60;7.33;;;;;;;;;;5139021;28;20470;-54
2021/09/07 13:55:11;;;;;;;8.90;7.33;;;;;;;;;;5138702;28;20445;-57
2021/09/07 13:57:42;;;;;;;12.70;7.40;;;;;;;;;;5139741;28;20442;-57
2021/09/07 14:00:11;;;;;;;11.00;7.30;;;;;;;;;;5139075;28;20486;-53
2021/09/07 14:02:43;;;;;;;10.47;6.97;;;;;;;;;;5138648;28;20449;-57
2021/09/07 14:08:30;;;;;;;8.10;5.33;;;;;;;;;;5132516;28;20422;-56
2021/09/07 14:14:03;;;;;;;8.90;6.90;;;;;;;;;;5129324;28;20432;-53
2021/09/07 14:16:33;;;;;;;9.50;7.70;;;;;;;;;;5138266;28;20833;-55
2021/09/07 14:22:12;;;;;;;8.97;6.50;;;;;;;;;;5133229;28;20503;-55
2021/09/07 14:24:43;;;;;;;10.40;6.90;;;;;;;;;;5138079;27;20450;-51
2021/09/07 14:27:18;;;;;;;13.00;8.77;;;;;;;;;;5118121;28;20518;-53
2021/09/07 14:29:54;;;;;;;10.00;7.80;;;;;;;;;;5125983;28;20474;-56
2021/09/07 14:32:23;;;;;;;9.47;7.77;;;;;;;;;;5137180;28;20441;-51
2021/09/07 14:35:00;;;;;;;8.93;7.13;;;;;;;;;;5139875;27;20486;-60
2021/09/07 14:37:31;;;;;;;11.00;8.43;;;;;;;;;;5150133;27;20505;-52
2021/09/07 14:39:58;;;;;;;12.50;8.23;;;;;;;;;;5148185;27;20490;-59
2021/09/07 14:42:30;;;;;;;10.30;7.00;;;;;;;;;;5136657;27;20817;-52
2021/09/07 14:45:10;;;;;;;9.60;7.30;;;;;;;;;;5136992;27;20456;-53
2021/09/07 14:47:46;;;;;;;11.23;7.23;;;;;;;;;;5136986;27;20450;-50
2021/09/07 14:50:14;;;;;;;11.37;7.77;;;;;;;;;;5137470;28;20458;-57
2021/09/07 14:52:53;;;;;;;15.50;7.43;;;;;;;;;;5137059;28;20470;-53
2021/09/07 14:55:30;;;;;;;10.23;7.33;;;;;;;;;;5137377;27;20453;-59
2021/09/07 14:58:01;;;;;;;8.77;7.40;;;;;;;;;;5136706;27;20444;-55
2021/09/07 15:00:50;;;;;;;9.63;7.30;;;;;;;;;;5149499;27;20481;-54
2021/09/07 15:03:21;;;;;;;14.80;7.50;;;;;;;;;;5158158;27;20444;-51
2021/09/07 15:05:51;;;;;;;10.30;8.17;;;;;;;;;;5140957;27;20450;-54
2021/09/07 15:08:18;;;;;;;8.40;7.27;;;;;;;;;;5152766;27;20455;-53
2021/09/07 15:10:46;;;;;;;8.63;7.13;;;;;;;;;;5157162;27;20453;-55
2021/09/07 15:16:19;;;;;;;12.57;9.27;;;;;;;;;;5142266;27;20472;-50
2021/09/07 15:18:49;;;;;;;13.23;10.43;;;;;;;;;;5141741;27;20458;-56
2021/09/07 15:21:24;;;;;;;13.87;9.17;;;;;;;;;;5139887;27;20457;-55
2021/09/07 15:23:53;;;;;;;8.20;6.50;;;;;;;;;;5146329;27;20442;-57
2021/09/07 15:26:44;;;;;;;12.20;9.73;;;;;;;;;;5148233;27;20471;-51
2021/09/07 15:29:13;;;;;;;9.20;6.70;;;;;;;;;;5144217;27;20434;-57
2021/09/07 15:31:42;;;;;;;11.83;7.43;;;;;;;;;;5150601;27;20453;-59
2021/09/07 15:34:10;;;;;;;11.80;9.30;;;;;;;;;;5139819;27;20483;-56
2021/09/07 15:36:41;;;;;;;13.73;7.13;;;;;;;;;;5144432;27;20484;-57
2021/09/07 15:39:26;;;;;;;8.50;6.80;;;;;;;;;;5146685;27;20884;-52
2021/09/07 15:41:56;;;;;;;10.60;6.93;;;;;;;;;;5149697;27;20450;-55
2021/09/07 15:44:31;;;;;;;10.03;7.10;;;;;;;;;;5144292;27;20468;-53
2021/09/07 15:47:00;;;;;;;10.33;6.63;;;;;;;;;;5142800;27;20456;-56
2021/09/07 15:49:27;;;;;;;9.50;7.00;;;;;;;;;;5151562;27;20458;-53
2021/09/07 15:51:55;;;;;;;10.50;7.80;;;;;;;;;;5150797;27;20486;-51
2021/09/07 15:54:23;;;;;;;10.70;7.10;;;;;;;;;;5157333;27;20533;-58
2021/09/07 15:57:07;;;;;;;8.40;6.30;;;;;;;;;;5157543;27;20528;-59
2021/09/07 15:59:34;;;;;;;12.60;8.20;;;;;;;;;;5137636;27;20515;-51
2021/09/07 16:02:03;;;;;;;9.93;7.00;;;;;;;;;;5136855;28;20450;-55
2021/09/07 16:04:59;;;;;;;13.50;8.63;;;;;;;;;;5143664;27;20471;-58
2021/09/07 16:07:28;;;;;;;8.17;6.00;;;;;;;;;;5138967;27;20494;-58
2021/09/07 16:10:03;;;;;;;13.67;6.00;;;;;;;;;;5136620;28;20454;-47
2021/09/07 16:12:36;;;;;;;10.37;7.07;;;;;;;;;;5117832;28;20542;-56
2021/09/07 16:17:54;;;;;;;15.77;9.70;;;;;;;;;;5114005;28;20516;-50
2021/09/07 16:20:25;;;;;;;11.70;7.97;;;;;;;;;;5128886;28;20485;-51
2021/09/07 16:22:54;;;;;;;12.77;10.80;;;;;;;;;;5123561;28;20466;-55
2021/09/07 16:25:28;;;;;;;16.17;11.20;;;;;;;;;;5116246;28;20459;-55
2021/09/07 16:28:05;;;;;;;6.80;5.43;;;;;;;;;;5116186;28;20492;-55
2021/09/07 16:30:36;;;;;;;8.30;7.37;;;;;;;;;;5123125;28;20451;-58
2021/09/07 16:33:08;;;;;;;10.50;7.93;;;;;;;;;;5127876;28;20477;-47
2021/09/07 16:35:44;;;;;;;8.47;6.83;;;;;;;;;;5118688;28;20478;-53
2021/09/07 16:38:12;;;;;;;10.47;7.17;;;;;;;;;;5119171;28;20486;-59
2021/09/07 16:40:42;;;;;;;8.20;6.53;;;;;;;;;;5101135;28;20484;-54
2021/09/07 16:43:15;;;;;;;12.07;8.07;;;;;;;;;;5121258;28;20440;-57
2021/09/07 16:45:42;;;;;;;11.70;7.07;;;;;;;;;;5110818;28;20461;-53
2021/09/07 16:48:29;;;;;;;13.13;8.60;;;;;;;;;;5124937;28;20459;-57
2021/09/07 16:50:57;;;;;;;13.00;6.67;;;;;;;;;;5117199;28;20486;-52
2021/09/07 16:53:30;;;;;;;9.90;7.97;;;;;;;;;;5112937;28;20474;-56